^^
Station Historical Data
 
Daily Summary for September 23, 2021 Units:  English    Metric   Both
Daily Weekly Monthly Yearly Custom
  Current: High: Low: Average:
Temperature: 46.8 °F 54.1 °F 46.8 °F 49.4 °F
Dew Point: 39.8 °F 39.8 °F 33.7 °F 36 °F
Humidity: 76.6% 76.6% 51.1% 60%
Wind Speed: 2.4mph 14.9mph 1.2mph 4.8mph
Wind Gust: 2.2mph 16mph - -
WindSE - - SSE
Pressure: 30.11 in 30.14 in 30.10 in -
Precipitation: 0.00 in      
Historical Graphs
 
 
Tabular Data for September 23, 2021
Time Temperature Dew Point Pressure Wind Wind Speed Wind Gust Humidity Rainfall Rate (Hourly) solar
00:04 54.1 °F 37 °F 30.14 in ESE 3.9 mph 6 mph 52.2% 0.00 in 0 W/m2
00:09 54.1 °F 37.9 °F 30.14 in East 3.4 mph 5 mph 54.4% 0.00 in 0 W/m2
00:14 53.7 °F 39.2 °F 30.14 in East 4.4 mph 4 mph 58% 0.00 in 0 W/m2
00:19 53.2 °F 38.6 °F 30.14 in East 4 mph 5 mph 57.7% 0.00 in 0 W/m2
00:24 52.8 °F 37.7 °F 30.14 in East 3.7 mph 5 mph 56.4% 0.00 in 0 W/m2
00:29 52.7 °F 37.5 °F 30.13 in ESE 3.8 mph 5 mph 56.2% 0.00 in 0 W/m2
00:34 52.4 °F 37.4 °F 30.13 in ESE 3.6 mph 4 mph 56.6% 0.00 in 0 W/m2
00:39 52.2 °F 37 °F 30.13 in ESE 4.6 mph 5 mph 56% 0.00 in 0 W/m2
00:44 52 °F 36.4 °F 30.13 in ESE 3.5 mph 5 mph 55.2% 0.00 in 0 W/m2
00:49 51.8 °F 36.1 °F 30.13 in ESE 3.8 mph 4 mph 55% 0.00 in 0 W/m2
00:54 51.6 °F 36 °F 30.13 in ESE 4 mph 5 mph 55% 0.00 in 0 W/m2
00:59 51.6 °F 36 °F 30.13 in ESE 4.3 mph 3.1 mph 55% 0.00 in 0 W/m2
01:04 51.6 °F 35.6 °F 30.13 in ESE 3.9 mph 5 mph 54.2% 0.00 in 0 W/m2
01:09 51.6 °F 35.2 °F 30.13 in East 3.8 mph 5 mph 53.4% 0.00 in 0 W/m2
01:14 51.6 °F 34.6 °F 30.12 in East 3.9 mph 5 mph 52% 0.00 in 0 W/m2
01:19 51.6 °F 34.3 °F 30.12 in ESE 3.6 mph 5 mph 51.4% 0.00 in 0 W/m2
01:24 51.7 °F 34.2 °F 30.12 in ESE 3.8 mph 4 mph 51.1% 0.00 in 0 W/m2
01:29 51.5 °F 34.5 °F 30.12 in ESE 4.6 mph 5 mph 52.2% 0.00 in 0 W/m2
01:34 51.1 °F 34.2 °F 30.12 in ESE 3.5 mph 5 mph 52.1% 0.00 in 0 W/m2
01:39 50.9 °F 34.3 °F 30.12 in ESE 5 mph 4 mph 53.1% 0.00 in 0 W/m2
01:44 50.5 °F 34.9 °F 30.12 in NNW 3.6 mph 6 mph 54.8% 0.00 in 0 W/m2
01:49 50.1 °F 34.5 °F 30.12 in East 4.2 mph 5 mph 54.8% 0.00 in 0 W/m2
01:54 49.7 °F 34.5 °F 30.12 in North 3.5 mph 5 mph 55.8% 0.00 in 0 W/m2
01:59 49.4 °F 34.8 °F 30.12 in NNW 3.3 mph 3 mph 57.2% 0.00 in 0 W/m2
02:04 49.3 °F 34.9 °F 30.12 in NW 2.1 mph 3 mph 57.6% 0.00 in 0 W/m2
02:09 49.1 °F 35.2 °F 30.12 in NW 3.7 mph 3 mph 58.7% 0.00 in 0 W/m2
02:14 48.9 °F 35 °F 30.12 in NW 4.3 mph 7 mph 58.6% 0.00 in 0 W/m2
02:19 48.7 °F 35.4 °F 30.12 in East 3.4 mph 4 mph 59.8% 0.00 in 0 W/m2
02:24 48.8 °F 34.5 °F 30.12 in NW 3.3 mph 5 mph 57.7% 0.00 in 0 W/m2
02:29 49.3 °F 35.4 °F 30.12 in NW 1.9 mph 4 mph 58.7% 0.00 in 0 W/m2
02:34 49.2 °F 36.3 °F 30.12 in NW 1.9 mph 1.3 mph 61% 0.00 in 0 W/m2
02:39 49.4 °F 36.7 °F 30.12 in NW 2.1 mph 2 mph 61.4% 0.00 in 0 W/m2
02:44 49.2 °F 36.9 °F 30.12 in NW 1.8 mph 2.5 mph 62.5% 0.00 in 0 W/m2
02:49 49.1 °F 34.7 °F 30.12 in NW 6.3 mph 8 mph 57.4% 0.00 in 0 W/m2
02:54 49.5 °F 33.7 °F 30.12 in NW 5.6 mph 8 mph 54.5% 0.00 in 0 W/m2
02:59 49.5 °F 34.6 °F 30.12 in NW 3.3 mph 7 mph 56.4% 0.00 in 0 W/m2
03:04 48.9 °F 34.7 °F 30.12 in NW 1.8 mph 3 mph 57.9% 0.00 in 0 W/m2
03:09 48.5 °F 34.6 °F 30.11 in NW 1.6 mph 2 mph 58.7% 0.00 in 0 W/m2
03:14 48.1 °F 35 °F 30.11 in East 1.3 mph 2 mph 60.4% 0.00 in 0 W/m2
03:19 48 °F 35.3 °F 30.11 in ESE 1.2 mph 2 mph 61.4% 0.00 in 0 W/m2
03:24 47.7 °F 35.1 °F 30.11 in ESE 5.2 mph 2.7 mph 61.4% 0.00 in 0 W/m2
03:29 47.7 °F 34.5 °F 30.11 in SE 5.5 mph 8 mph 60.2% 0.00 in 0 W/m2
03:34 47.3 °F 34.9 °F 30.11 in SE 4.7 mph 7 mph 61.9% 0.00 in 0 W/m2
03:39 47.1 °F 34 °F 30.11 in SE 4.4 mph 6 mph 60.2% 0.00 in 0 W/m2
03:44 47.4 °F 33.7 °F 30.11 in SE 8.3 mph 12 mph 58.9% 0.00 in 0 W/m2
03:49 47.7 °F 34.1 °F 30.11 in SE 8.1 mph 12 mph 59% 0.00 in 0 W/m2
03:54 47.8 °F 34.5 °F 30.11 in SE 8.1 mph 4.2 mph 59.7% 0.00 in 0 W/m2
03:59 47.7 °F 35.1 °F 30.11 in SE 11.6 mph 9.8 mph 61.4% 0.00 in 0 W/m2
04:04 47.5 °F 35.1 °F 30.11 in SE 11.5 mph 13 mph 62.1% 0.00 in 0 W/m2
04:09 47.5 °F 35.7 °F 30.11 in SE 5.8 mph 13 mph 63.6% 0.00 in 0 W/m2
04:14 47.5 °F 36.3 °F 30.10 in SE 3.4 mph 7 mph 64.9% 0.00 in 0 W/m2
04:19 47.1 °F 36.7 °F 30.10 in SE 2.3 mph 4 mph 66.8% 0.00 in 0 W/m2
04:24 47.1 °F 36.8 °F 30.11 in ESE 2.8 mph 2.2 mph 67.2% 0.00 in 0 W/m2
04:29 46.9 °F 37.1 °F 30.11 in ESE 5 mph 4 mph 68.4% 0.00 in 0 W/m2
04:34 47 °F 37.6 °F 30.11 in NW 4.3 mph 10 mph 69.5% 0.00 in 0 W/m2
04:39 47.1 °F 38.6 °F 30.11 in SE 3.1 mph 6 mph 72.2% 0.00 in 0 W/m2
04:44 47.1 °F 37.9 °F 30.11 in SE 6.1 mph 8.5 mph 70.2% 0.00 in 0 W/m2
04:49 47.1 °F 38.2 °F 30.11 in SE 12.6 mph 11 mph 71% 0.00 in 0 W/m2
04:54 47.1 °F 38.5 °F 30.12 in SE 12.2 mph 14 mph 71.8% 0.00 in 0 W/m2
04:59 47 °F 38.8 °F 30.12 in SE 13.2 mph 13 mph 72.8% 0.00 in 0 W/m2
05:04 46.9 °F 39.1 °F 30.12 in SE 14.9 mph 16 mph 74.1% 0.00 in 0 W/m2
05:09 46.9 °F 39.5 °F 30.11 in SE 4.8 mph 15 mph 75.2% 0.00 in 0 W/m2
05:14 46.8 °F 39.8 °F 30.11 in SE 2.4 mph 2.2 mph 76.6% 0.00 in 0 W/m2
The Lakes at Centerra, Loveland, Colorado, USA
Compliments of Weather Underground - 2 mb